Terminal Aerodrome Forecast
Issued by NWS

Home | Current Version | Previous Version | Text Only | Print | Product List | Glossary On
Versions: 1 2 3 4 5 6 7 8 9 10 11 12 13 14 15 16
000
FTUS44 KLZK 111100 CCA
TAFLLQ
TAF COR
KLLQ 111156Z 1112/1212 VRB03KT P6SM SCT100
      TEMPO 1112/1114 5SM BR
     FM111500 12005KT P6SM SCT040 SCT120
     FM111800 16006KT P6SM VCTS SCT050CB
     FM120100 VRB03KT P6SM SCT250=

USA.gov is the U.S. government's official web portal to all federal, state and local government web resources and services.